Wetterdaten: Woche 06.11.17 - 12.11.17 (KW45)
Datum Zeit Temp. Aussen Temp. o. S. +5cm Feuchte Auss BlattFeu 1 Luftdruck Regen Sonnenschein Regendauer Solar Windben Empfang
06.11.2017 00:00 3,6 C 2,6 C 1,7 C 94 % 4 lf 1016,4 hPa 0,0 l/m 0,00 h 0,03 h 0 W/m 7,2 km/h (2 Bft) 97,58 %
06.11.2017 01:00 3,2 C 2,1 C 1,3 C 95 % 12 lf 1016,8 hPa 0,0 l/m 0,00 h 0,00 h 0 W/m 8,3 km/h (2 Bft) 97,02 %
06.11.2017 02:00 3,2 C 2,7 C 2,0 C 95 % 15 lf 1017,3 hPa 0,0 l/m 0,00 h 0,13 h 0 W/m 8,0 km/h (2 Bft) 96,43 %
06.11.2017 03:00 3,2 C 2,1 C 1,2 C 96 % 15 lf 1017,8 hPa 0,0 l/m 0,00 h 0,00 h 0 W/m 7,6 km/h (2 Bft) 94,38 %
06.11.2017 04:00 2,8 C 1,8 C 1,0 C 96 % 15 lf 1018,3 hPa 0,0 l/m 0,00 h 0,07 h 0 W/m 7,8 km/h (2 Bft) 98,18 %
06.11.2017 05:00 2,6 C 1,6 C 0,8 C 96 % 15 lf 1019,1 hPa 0,2 l/m 0,00 h 0,00 h 0 W/m 8,5 km/h (2 Bft) 95,48 %
06.11.2017 06:00 2,8 C 2,7 C 2,0 C 97 % 15 lf 1019,9 hPa 0,0 l/m 0,00 h 0,00 h 0 W/m 7,0 km/h (2 Bft) 97,65 %
06.11.2017 07:00 3,2 C 2,9 C 2,1 C 97 % 15 lf 1020,6 hPa 0,0 l/m 0,00 h 0,00 h 8 W/m 5,6 km/h (1 Bft) 96,44 %
06.11.2017 08:00 3,2 C 2,9 C 1,7 C 97 % 15 lf 1021,5 hPa 0,0 l/m 0,00 h 0,00 h 32 W/m 6,3 km/h (2 Bft) 93,73 %
06.11.2017 09:00 3,8 C 6,8 C 2,9 C 97 % 15 lf 1022,1 hPa 0,0 l/m 0,47 h 0,00 h 134 W/m 4,3 km/h (1 Bft) 97,51 %
06.11.2017 10:00 6,2 C 18,4 C 4,7 C 98 % 12 lf 1022,6 hPa 0,0 l/m 1,00 h 0,00 h 276 W/m 8,0 km/h (2 Bft) 96,58 %
06.11.2017 11:00 8,2 C 20,5 C 6,9 C 96 % 0 lf 1023,0 hPa 0,0 l/m 1,00 h 0,00 h 347 W/m 11,7 km/h (2 Bft) 99,00 %
06.11.2017 12:00 10,1 C 21,2 C 8,4 C 82 % 0 lf 1023,1 hPa 0,0 l/m 1,00 h 0,00 h 356 W/m 10,2 km/h (2 Bft) 96,68 %
06.11.2017 13:00 10,9 C 20,0 C 9,3 C 74 % 0 lf 1023,2 hPa 0,0 l/m 1,00 h 0,00 h 338 W/m 10,9 km/h (2 Bft) 94,10 %
06.11.2017 14:00 11,1 C 18,4 C 9,5 C 69 % 0 lf 1023,5 hPa 0,0 l/m 0,73 h 0,00 h 234 W/m 9,1 km/h (2 Bft) 93,81 %
06.11.2017 15:00 10,4 C 12,4 C 8,0 C 67 % 0 lf 1023,7 hPa 0,0 l/m 0,87 h 0,00 h 117 W/m 6,3 km/h (2 Bft) 97,44 %
06.11.2017 16:00 9,4 C 7,9 C 5,4 C 68 % 0 lf 1024,0 hPa 0,0 l/m 0,00 h 0,00 h 23 W/m 4,1 km/h (1 Bft) 97,08 %
06.11.2017 17:00 7,3 C 4,3 C 2,3 C 76 % 0 lf 1024,3 hPa 0,0 l/m 0,00 h 0,00 h 5 W/m 0,1 km/h (0 Bft) 96,15 %
06.11.2017 18:00 5,2 C 2,6 C 1,3 C 83 % 1 lf 1024,7 hPa 0,0 l/m 0,00 h 0,00 h 0 W/m 0,0 km/h (0 Bft) 96,10 %
06.11.2017 19:00 3,8 C 1,9 C 0,7 C 86 % 2 lf 1025,0 hPa 0,0 l/m 0,00 h 0,00 h 0 W/m 0,3 km/h (0 Bft) 97,65 %
06.11.2017 20:00 2,9 C 1,3 C 0,1 C 88 % 5 lf 1025,3 hPa 0,0 l/m 0,00 h 0,00 h 0 W/m 0,0 km/h (0 Bft) 97,22 %
06.11.2017 21:00 2,2 C 0,6 C -0,4 C 89 % 13 lf 1025,5 hPa 0,0 l/m 0,00 h 0,00 h 0 W/m 0,0 km/h (0 Bft) 96,80 %
06.11.2017 22:00 1,7 C 0,4 C -0,6 C 90 % 15 lf 1025,6 hPa 0,0 l/m 0,00 h 0,00 h 0 W/m 0,0 km/h (0 Bft) 93,52 %
06.11.2017 23:00 1,3 C -0,3 C -0,9 C 91 % 15 lf 1025,5 hPa 0,0 l/m 0,00 h 0,00 h 0 W/m 0,9 km/h (0 Bft) 98,01 %
07.11.2017 00:00 0,8 C -0,9 C -1,5 C 92 % 15 lf 1025,3 hPa 0,0 l/m 0,00 h 0,00 h 0 W/m 0,0 km/h (0 Bft) 97,75 %
07.11.2017 01:00 0,4 C -1,1 C -1,7 C 92 % 15 lf 1024,7 hPa 0,0 l/m 0,00 h 0,00 h 0 W/m 1,2 km/h (1 Bft) 95,52 %
07.11.2017 02:00 -0,0 C -1,5 C -2,0 C 93 % 15 lf 1024,3 hPa 0,0 l/m 0,00 h 0,00 h 0 W/m 2,0 km/h (1 Bft) 97,01 %
07.11.2017 03:00 -0,3 C -0,9 C -1,6 C 94 % 15 lf 1024,1 hPa 0,0 l/m 0,00 h 0,00 h 0 W/m 3,6 km/h (1 Bft) 95,59 %
07.11.2017 04:00 -0,2 C -0,8 C -1,4 C 94 % 15 lf 1023,9 hPa 0,0 l/m 0,00 h 0,00 h 0 W/m 1,1 km/h (0 Bft) 96,18 %
07.11.2017 05:00 -0,4 C -1,0 C -1,5 C 95 % 13 lf 1023,5 hPa 0,0 l/m 0,00 h 0,00 h 0 W/m 1,0 km/h (0 Bft) 97,26 %
07.11.2017 06:00 -0,5 C -0,7 C -1,2 C 95 % 15 lf 1023,4 hPa 0,0 l/m 0,00 h 0,07 h 0 W/m 0,1 km/h (0 Bft) 97,82 %
07.11.2017 07:00 -0,3 C -0,6 C -1,1 C 96 % 15 lf 1023,5 hPa 0,0 l/m 0,00 h 0,00 h 6 W/m 4,5 km/h (1 Bft) 94,22 %
07.11.2017 08:00 0,2 C 0,6 C -0,4 C 96 % 15 lf 1023,2 hPa 0,0 l/m 0,40 h 0,00 h 55 W/m 3,3 km/h (1 Bft) 96,34 %
07.11.2017 09:00 1,7 C 4,1 C 1,0 C 97 % 15 lf 1022,9 hPa 0,2 l/m 1,00 h 0,00 h 170 W/m 8,1 km/h (2 Bft) 99,00 %
07.11.2017 10:00 2,9 C 4,8 C 2,3 C 97 % 15 lf 1022,8 hPa 0,0 l/m 0,57 h 0,00 h 159 W/m 10,7 km/h (2 Bft) 94,45 %
07.11.2017 11:00 3,5 C 5,6 C 3,7 C 98 % 15 lf 1022,0 hPa 0,0 l/m 0,40 h 0,00 h 171 W/m 7,7 km/h (2 Bft) 96,90 %
07.11.2017 12:00 4,9 C 14,3 C 4,8 C 98 % 5 lf 1021,1 hPa 0,0 l/m 1,00 h 0,00 h 363 W/m 6,1 km/h (2 Bft) 96,87 %
07.11.2017 13:00 7,2 C 15,7 C 6,1 C 95 % 0 lf 1020,4 hPa 0,0 l/m 1,00 h 0,00 h 307 W/m 7,1 km/h (2 Bft) 98,29 %
07.11.2017 14:00 8,8 C 15,4 C 7,4 C 84 % 0 lf 1019,7 hPa 0,0 l/m 0,93 h 0,00 h 207 W/m 5,7 km/h (1 Bft) 96,65 %
07.11.2017 15:00 8,6 C 8,7 C 7,1 C 82 % 0 lf 1019,2 hPa 0,0 l/m 0,00 h 0,00 h 66 W/m 8,3 km/h (2 Bft) 97,01 %
07.11.2017 16:00 7,2 C 6,6 C 5,5 C 88 % 0 lf 1018,8 hPa 0,0 l/m 0,00 h 0,00 h 15 W/m 10,5 km/h (2 Bft) 98,15 %
07.11.2017 17:00 6,2 C 5,8 C 4,7 C 91 % 0 lf 1018,6 hPa 0,0 l/m 0,00 h 0,00 h 3 W/m 9,7 km/h (2 Bft) 93,88 %
07.11.2017 18:00 5,8 C 5,6 C 4,4 C 92 % 1 lf 1018,4 hPa 0,0 l/m 0,00 h 0,03 h 0 W/m 6,2 km/h (2 Bft) 97,27 %
07.11.2017 19:00 5,5 C 4,5 C 3,3 C 93 % 11 lf 1018,0 hPa 0,0 l/m 0,00 h 0,17 h 0 W/m 1,4 km/h (1 Bft) 96,37 %
07.11.2017 20:00 4,9 C 3,7 C 2,6 C 93 % 14 lf 1017,7 hPa 0,0 l/m 0,00 h 0,00 h 0 W/m 3,8 km/h (1 Bft) 97,29 %
07.11.2017 21:00 4,6 C 4,2 C 3,3 C 94 % 13 lf 1017,4 hPa 0,0 l/m 0,00 h 0,00 h 0 W/m 4,1 km/h (1 Bft) 95,80 %
07.11.2017 22:00 4,7 C 4,2 C 3,3 C 95 % 6 lf 1017,1 hPa 0,0 l/m 0,00 h 0,00 h 0 W/m 1,9 km/h (1 Bft) 95,52 %
07.11.2017 23:00 4,4 C 3,5 C 2,6 C 95 % 3 lf 1016,8 hPa 0,0 l/m 0,00 h 0,00 h 0 W/m 2,2 km/h (1 Bft) 97,29 %
08.11.2017 00:00 4,0 C 3,6 C 2,9 C 95 % 5 lf 1016,6 hPa 0,0 l/m 0,00 h 0,00 h 0 W/m 0,8 km/h (0 Bft) 95,64 %
08.11.2017 01:00 4,2 C 4,2 C 3,5 C 96 % 2 lf 1016,3 hPa 0,0 l/m 0,00 h 0,00 h 0 W/m 0,6 km/h (0 Bft) 98,01 %
08.11.2017 02:00 4,6 C 4,4 C 3,9 C 96 % 1 lf 1016,2 hPa 0,0 l/m 0,00 h 0,00 h 0 W/m 1,8 km/h (1 Bft) 94,24 %
08.11.2017 03:00 4,7 C 4,6 C 3,9 C 96 % 1 lf 1016,1 hPa 0,0 l/m 0,00 h 0,00 h 0 W/m 0,0 km/h (0 Bft) 96,22 %
08.11.2017 04:00 5,0 C 5,0 C 4,0 C 97 % 1 lf 1016,1 hPa 0,0 l/m 0,00 h 0,00 h 0 W/m 0,3 km/h (0 Bft) 97,88 %
08.11.2017 05:00 5,1 C 5,0 C 3,9 C 97 % 1 lf 1015,8 hPa 0,0 l/m 0,00 h 0,00 h 0 W/m 4,7 km/h (1 Bft) 97,24 %
08.11.2017 06:00 5,1 C 5,0 C 3,9 C 97 % 4 lf 1015,9 hPa 0,0 l/m 0,00 h 0,23 h 0 W/m 3,5 km/h (1 Bft) 94,21 %
08.11.2017 07:00 5,1 C 5,0 C 3,9 C 97 % 14 lf 1016,2 hPa 0,0 l/m 0,00 h 0,10 h 4 W/m 2,9 km/h (1 Bft) 97,86 %
08.11.2017 08:00 5,2 C 5,3 C 4,3 C 97 % 12 lf 1016,7 hPa 0,0 l/m 0,00 h 0,07 h 18 W/m 6,3 km/h (2 Bft) 96,08 %
08.11.2017 09:00 5,6 C 6,0 C 5,0 C 97 % 14 lf 1017,5 hPa 0,0 l/m 0,00 h 0,17 h 43 W/m 7,5 km/h (2 Bft) 96,68 %
08.11.2017 10:00 6,0 C 6,9 C 5,9 C 98 % 6 lf 1017,7 hPa 0,0 l/m 0,00 h 0,00 h 68 W/m 9,1 km/h (2 Bft) 96,65 %
08.11.2017 11:00 6,5 C 7,8 C 6,9 C 98 % 0 lf 1017,8 hPa 0,0 l/m 0,00 h 0,00 h 88 W/m 9,2 km/h (2 Bft) 94,88 %
08.11.2017 12:00 6,8 C 7,8 C 6,8 C 98 % 0 lf 1017,9 hPa 0,0 l/m 0,00 h 0,00 h 62 W/m 11,5 km/h (2 Bft) 98,38 %
08.11.2017 13:00 7,0 C 7,8 C 6,8 C 97 % 0 lf 1018,0 hPa 0,0 l/m 0,00 h 0,00 h 51 W/m 9,4 km/h (2 Bft) 97,39 %
08.11.2017 14:00 7,3 C 8,0 C 7,1 C 97 % 0 lf 1018,0 hPa 0,0 l/m 0,00 h 0,00 h 55 W/m 10,1 km/h (2 Bft) 94,16 %
08.11.2017 15:00 7,4 C 7,8 C 6,7 C 96 % 0 lf 1018,3 hPa 0,0 l/m 0,00 h 0,00 h 23 W/m 8,3 km/h (2 Bft) 97,68 %
08.11.2017 16:00 7,5 C 7,5 C 6,7 C 95 % 0 lf 1018,8 hPa 0,0 l/m 0,00 h 0,00 h 9 W/m 7,7 km/h (2 Bft) 98,30 %
08.11.2017 17:00 7,5 C 7,2 C 6,5 C 95 % 0 lf 1019,2 hPa 0,0 l/m 0,00 h 0,00 h 0 W/m 6,3 km/h (2 Bft) 93,24 %
08.11.2017 18:00 7,4 C 7,2 C 6,1 C 95 % 1 lf 1019,7 hPa 0,0 l/m 0,00 h 0,00 h 0 W/m 4,9 km/h (1 Bft) 97,39 %
08.11.2017 19:00 7,4 C 7,2 C 6,5 C 96 % 1 lf 1020,0 hPa 0,0 l/m 0,00 h 0,00 h 0 W/m 7,7 km/h (2 Bft) 96,72 %
08.11.2017 20:00 7,4 C 7,2 C 6,1 C 96 % 1 lf 1020,2 hPa 0,0 l/m 0,00 h 0,00 h 0 W/m 9,0 km/h (2 Bft) 96,11 %
08.11.2017 21:00 7,3 C 7,2 C 6,1 C 96 % 1 lf 1020,5 hPa 0,0 l/m 0,00 h 0,00 h 0 W/m 8,0 km/h (2 Bft) 96,32 %
08.11.2017 22:00 7,3 C 7,2 C 6,1 C 97 % 1 lf 1020,6 hPa 0,0 l/m 0,00 h 0,00 h 0 W/m 4,1 km/h (1 Bft) 97,16 %
08.11.2017 23:00 7,2 C 6,9 C 6,0 C 97 % 1 lf 1020,6 hPa 0,0 l/m 0,00 h 0,00 h 0 W/m 2,5 km/h (1 Bft) 95,59 %
09.11.2017 00:00 7,2 C 7,1 C 6,1 C 97 % 1 lf 1020,5 hPa 0,0 l/m 0,00 h 0,00 h 0 W/m 3,7 km/h (1 Bft) 98,79 %
09.11.2017 01:00 7,2 C 7,2 C 6,1 C 97 % 1 lf 1020,8 hPa 0,0 l/m 0,00 h 0,00 h 0 W/m 5,9 km/h (2 Bft) 94,10 %
09.11.2017 02:00 7,2 C 7,1 C 6,1 C 97 % 1 lf 1020,9 hPa 0,0 l/m 0,00 h 0,00 h 0 W/m 5,5 km/h (1 Bft) 96,86 %
09.11.2017 03:00 7,2 C 7,0 C 6,1 C 97 % 1 lf 1021,2 hPa 0,0 l/m 0,00 h 0,00 h 0 W/m 5,2 km/h (1 Bft) 98,29 %
09.11.2017 04:00 7,1 C 7,2 C 6,1 C 97 % 1 lf 1021,4 hPa 0,0 l/m 0,00 h 0,00 h 0 W/m 5,5 km/h (1 Bft) 89,69 %
09.11.2017 05:00 7,1 C 6,7 C 6,1 C 98 % 1 lf 1021,3 hPa 0,0 l/m 0,00 h 0,00 h 0 W/m 3,5 km/h (1 Bft) 95,80 %
09.11.2017 06:00 7,1 C 6,7 C 6,1 C 98 % 1 lf 1021,4 hPa 0,0 l/m 0,00 h 0,00 h 0 W/m 5,4 km/h (1 Bft) 97,65 %
09.11.2017 07:00 7,0 C 6,7 C 6,1 C 98 % 1 lf 1021,8 hPa 0,0 l/m 0,00 h 0,00 h 4 W/m 6,8 km/h (2 Bft) 95,39 %
09.11.2017 08:00 6,8 C 6,9 C 6,2 C 97 % 1 lf 1022,2 hPa 0,0 l/m 0,00 h 0,00 h 16 W/m 7,0 km/h (2 Bft) 96,93 %
09.11.2017 09:00 6,9 C 7,7 C 7,0 C 98 % 0 lf 1022,6 hPa 0,0 l/m 0,00 h 0,03 h 58 W/m 9,2 km/h (2 Bft) 96,75 %
09.11.2017 10:00 7,2 C 8,2 C 7,6 C 97 % 0 lf 1022,7 hPa 0,0 l/m 0,00 h 0,00 h 81 W/m 10,2 km/h (2 Bft) 94,30 %
09.11.2017 11:00 7,7 C 8,9 C 8,2 C 94 % 0 lf 1022,6 hPa 0,0 l/m 0,00 h 0,00 h 108 W/m 13,5 km/h (3 Bft) 99,14 %
09.11.2017 12:00 8,4 C 10,8 C 8,7 C 89 % 0 lf 1022,3 hPa 0,0 l/m 0,57 h 0,00 h 216 W/m 18,8 km/h (3 Bft) 96,07 %
09.11.2017 13:00 8,9 C 10,1 C 9,1 C 86 % 0 lf 1022,1 hPa 0,0 l/m 0,30 h 0,00 h 162 W/m 20,8 km/h (4 Bft) 96,13 %
09.11.2017 14:00 8,7 C 9,7 C 8,4 C 87 % 0 lf 1021,9 hPa 0,0 l/m 0,20 h 0,00 h 112 W/m 16,0 km/h (3 Bft) 97,96 %
09.11.2017 15:00 8,7 C 9,3 C 7,9 C 87 % 0 lf 1022,0 hPa 0,0 l/m 0,43 h 0,00 h 84 W/m 18,0 km/h (3 Bft) 95,40 %
09.11.2017 16:00 8,2 C 7,7 C 6,7 C 88 % 0 lf 1021,7 hPa 0,0 l/m 0,00 h 0,00 h 22 W/m 14,4 km/h (3 Bft) 96,58 %
09.11.2017 17:00 7,5 C 7,0 C 5,8 C 91 % 0 lf 1021,4 hPa 0,0 l/m 0,00 h 0,00 h 0 W/m 13,3 km/h (3 Bft) 97,87 %
09.11.2017 18:00 7,3 C 7,1 C 5,9 C 92 % 0 lf 1021,5 hPa 0,0 l/m 0,00 h 0,00 h 0 W/m 13,8 km/h (3 Bft) 96,88 %
09.11.2017 19:00 7,5 C 7,3 C 6,7 C 92 % 0 lf 1021,8 hPa 0,0 l/m 0,00 h 0,00 h 0 W/m 16,1 km/h (3 Bft) 94,85 %
09.11.2017 20:00 7,6 C 7,2 C 6,3 C 92 % 9 lf 1021,8 hPa 0,0 l/m 0,00 h 0,00 h 0 W/m 17,7 km/h (3 Bft) 96,88 %
09.11.2017 21:00 7,4 C 7,1 C 6,1 C 94 % 12 lf 1021,5 hPa 0,0 l/m 0,00 h 0,03 h 0 W/m 19,5 km/h (3 Bft) 96,53 %
09.11.2017 22:00 7,4 C 7,2 C 6,3 C 95 % 0 lf 1021,1 hPa 0,0 l/m 0,00 h 0,00 h 0 W/m 25,9 km/h (4 Bft) 96,86 %
09.11.2017 23:00 7,5 C 7,0 C 6,1 C 94 % 7 lf 1020,6 hPa 0,0 l/m 0,00 h 0,23 h 0 W/m 26,6 km/h (4 Bft) 96,96 %
10.11.2017 00:00 7,3 C 6,7 C 6,0 C 96 % 15 lf 1020,2 hPa 0,4 l/m 0,00 h 0,30 h 0 W/m 28,2 km/h (4 Bft) 95,33 %
10.11.2017 01:00 7,2 C 6,7 C 6,1 C 96 % 15 lf 1019,6 hPa 0,0 l/m 0,00 h 0,00 h 0 W/m 25,7 km/h (4 Bft) 97,43 %
10.11.2017 02:00 7,3 C 6,7 C 6,1 C 97 % 15 lf 1019,1 hPa 0,2 l/m 0,00 h 0,33 h 0 W/m 27,4 km/h (4 Bft) 97,36 %
10.11.2017 03:00 7,4 C 6,9 C 6,1 C 97 % 15 lf 1018,4 hPa 0,2 l/m 0,00 h 0,27 h 0 W/m 25,2 km/h (4 Bft) 94,44 %
10.11.2017 04:00 7,5 C 7,2 C 6,1 C 97 % 15 lf 1017,5 hPa 0,0 l/m 0,00 h 0,00 h 0 W/m 23,5 km/h (4 Bft) 97,44 %
10.11.2017 05:00 7,6 C 7,2 C 6,3 C 97 % 15 lf 1016,9 hPa 0,0 l/m 0,00 h 0,00 h 0 W/m 24,2 km/h (4 Bft) 97,72 %
10.11.2017 06:00 7,7 C 7,2 C 6,7 C 97 % 14 lf 1016,0 hPa 0,0 l/m 0,00 h 0,00 h 0 W/m 20,2 km/h (4 Bft) 95,31 %
10.11.2017 07:00 7,9 C 7,3 C 6,7 C 97 % 12 lf 1015,5 hPa 0,2 l/m 0,00 h 0,20 h 0 W/m 23,8 km/h (4 Bft) 96,44 %
10.11.2017 08:00 7,9 C 7,4 C 6,7 C 97 % 15 lf 1015,2 hPa 0,0 l/m 0,00 h 0,10 h 11 W/m 21,7 km/h (4 Bft) 96,44 %
10.11.2017 09:00 8,2 C 7,9 C 7,0 C 97 % 15 lf 1014,4 hPa 0,0 l/m 0,00 h 0,33 h 23 W/m 27,0 km/h (4 Bft) 96,58 %
10.11.2017 10:00 8,9 C 9,3 C 8,1 C 97 % 4 lf 1013,6 hPa 0,0 l/m 0,00 h 0,00 h 69 W/m 27,0 km/h (4 Bft) 97,57 %
10.11.2017 11:00 9,8 C 10,5 C 8,9 C 95 % 2 lf 1012,9 hPa 0,0 l/m 0,13 h 0,03 h 107 W/m 26,2 km/h (4 Bft) 95,21 %
10.11.2017 12:00 10,0 C 9,6 C 8,3 C 94 % 13 lf 1012,2 hPa 0,2 l/m 0,00 h 0,87 h 53 W/m 29,9 km/h (5 Bft) 95,75 %
10.11.2017 13:00 9,7 C 10,1 C 8,6 C 95 % 15 lf 1011,8 hPa 0,2 l/m 0,10 h 0,37 h 109 W/m 28,9 km/h (5 Bft) 98,88 %
10.11.2017 14:00 10,4 C 13,2 C 9,4 C 94 % 1 lf 1011,3 hPa 0,0 l/m 0,70 h 0,17 h 186 W/m 31,5 km/h (5 Bft) 95,23 %
10.11.2017 15:00 10,8 C 11,4 C 8,8 C 87 % 6 lf 1011,9 hPa 0,0 l/m 0,47 h 0,47 h 90 W/m 30,3 km/h (5 Bft) 96,44 %
10.11.2017 16:00 9,8 C 9,3 C 6,7 C 77 % 0 lf 1012,7 hPa 0,0 l/m 0,00 h 0,20 h 16 W/m 31,8 km/h (5 Bft) 97,58 %
10.11.2017 17:00 8,5 C 7,5 C 5,4 C 81 % 0 lf 1013,5 hPa 0,0 l/m 0,00 h 0,00 h 0 W/m 17,1 km/h (3 Bft) 96,08 %
10.11.2017 18:00 7,6 C 6,6 C 4,8 C 82 % 0 lf 1014,3 hPa 0,0 l/m 0,00 h 0,00 h 0 W/m 16,7 km/h (3 Bft) 95,33 %
10.11.2017 19:00 6,9 C 6,1 C 4,3 C 84 % 0 lf 1014,6 hPa 0,0 l/m 0,00 h 0,00 h 0 W/m 16,1 km/h (3 Bft) 97,94 %
10.11.2017 20:00 6,2 C 5,5 C 3,9 C 86 % 0 lf 1014,7 hPa 0,0 l/m 0,00 h 0,00 h 0 W/m 14,6 km/h (3 Bft) 95,45 %
10.11.2017 21:00 5,6 C 4,7 C 3,1 C 87 % 0 lf 1014,8 hPa 0,0 l/m 0,00 h 0,00 h 0 W/m 12,4 km/h (3 Bft) 97,49 %
10.11.2017 22:00 5,4 C 5,3 C 3,8 C 88 % 0 lf 1014,9 hPa 0,0 l/m 0,00 h 0,00 h 0 W/m 19,2 km/h (3 Bft) 97,15 %
10.11.2017 23:00 5,5 C 4,7 C 3,4 C 87 % 0 lf 1014,6 hPa 0,0 l/m 0,00 h 0,00 h 0 W/m 16,7 km/h (3 Bft) 93,52 %
11.11.2017 00:00 4,9 C 4,5 C 3,1 C 89 % 0 lf 1014,4 hPa 0,0 l/m 0,00 h 0,00 h 0 W/m 19,8 km/h (4 Bft) 98,63 %
11.11.2017 01:00 5,0 C 4,5 C 3,3 C 90 % 0 lf 1014,2 hPa 0,0 l/m 0,00 h 0,00 h 0 W/m 21,4 km/h (4 Bft) 96,08 %
11.11.2017 02:00 5,1 C 4,9 C 3,7 C 91 % 0 lf 1013,8 hPa 0,0 l/m 0,00 h 0,00 h 0 W/m 21,3 km/h (4 Bft) 96,94 %
11.11.2017 03:00 5,1 C 4,9 C 3,3 C 91 % 0 lf 1013,1 hPa 0,0 l/m 0,00 h 0,00 h 0 W/m 22,3 km/h (4 Bft) 95,59 %
11.11.2017 04:00 5,1 C 5,1 C 3,8 C 91 % 0 lf 1012,5 hPa 0,0 l/m 0,00 h 0,00 h 0 W/m 25,1 km/h (4 Bft) 97,54 %
11.11.2017 05:00 5,5 C 5,4 C 4,2 C 91 % 0 lf 1011,9 hPa 0,0 l/m 0,00 h 0,00 h 0 W/m 20,7 km/h (4 Bft) 96,04 %
11.11.2017 06:00 5,7 C 5,0 C 4,0 C 91 % 13 lf 1011,3 hPa 0,2 l/m 0,00 h 0,33 h 0 W/m 18,8 km/h (3 Bft) 97,56 %
11.11.2017 07:00 5,5 C 5,1 C 3,9 C 93 % 15 lf 1010,6 hPa 0,0 l/m 0,00 h 0,00 h 4 W/m 14,1 km/h (3 Bft) 95,24 %
11.11.2017 08:00 5,9 C 6,1 C 4,2 C 92 % 4 lf 1010,1 hPa 0,0 l/m 0,00 h 0,00 h 22 W/m 22,2 km/h (4 Bft) 96,60 %
11.11.2017 09:00 6,5 C 6,7 C 5,0 C 90 % 2 lf 1009,8 hPa 0,0 l/m 0,00 h 0,20 h 56 W/m 22,0 km/h (4 Bft) 96,63 %
11.11.2017 10:00 6,6 C 6,5 C 5,4 C 92 % 10 lf 1009,1 hPa 0,2 l/m 0,00 h 0,37 h 77 W/m 15,1 km/h (3 Bft) 98,00 %
11.11.2017 11:00 6,6 C 6,2 C 5,7 C 94 % 15 lf 1008,1 hPa 0,2 l/m 0,00 h 0,73 h 71 W/m 11,3 km/h (2 Bft) 94,62 %
11.11.2017 12:00 6,8 C 6,7 C 6,1 C 96 % 15 lf 1007,1 hPa 0,2 l/m 0,00 h 0,13 h 50 W/m 7,0 km/h (2 Bft) 96,21 %
11.11.2017 13:00 7,2 C 7,5 C 6,8 C 96 % 15 lf 1006,7 hPa 0,4 l/m 0,00 h 0,40 h 76 W/m 6,2 km/h (2 Bft) 98,76 %
11.11.2017 14:00 7,8 C 8,2 C 7,4 C 97 % 15 lf 1006,2 hPa 0,2 l/m 0,20 h 0,00 h 100 W/m 8,7 km/h (2 Bft) 94,23 %
11.11.2017 15:00 7,8 C 7,8 C 7,0 C 97 % 15 lf 1006,4 hPa 0,0 l/m 0,00 h 0,00 h 47 W/m 12,0 km/h (2 Bft) 96,08 %
11.11.2017 16:00 7,4 C 6,8 C 5,8 C 96 % 15 lf 1006,6 hPa 0,0 l/m 0,00 h 0,00 h 12 W/m 11,0 km/h (2 Bft) 97,72 %
11.11.2017 17:00 7,1 C 6,7 C 5,6 C 96 % 15 lf 1007,1 hPa 0,0 l/m 0,00 h 0,07 h 0 W/m 9,7 km/h (2 Bft) 96,51 %
11.11.2017 18:00 7,0 C 6,5 C 5,5 C 96 % 15 lf 1007,5 hPa 0,8 l/m 0,00 h 0,50 h 0 W/m 10,1 km/h (2 Bft) 96,30 %
11.11.2017 19:00 6,7 C 5,7 C 4,6 C 97 % 15 lf 1008,0 hPa 0,0 l/m 0,00 h 0,00 h 0 W/m 7,1 km/h (2 Bft) 97,03 %
11.11.2017 20:00 5,9 C 4,6 C 3,6 C 96 % 15 lf 1008,5 hPa 0,0 l/m 0,00 h 0,00 h 0 W/m 5,5 km/h (1 Bft) 94,81 %
11.11.2017 21:00 5,6 C 5,0 C 4,2 C 97 % 15 lf 1008,7 hPa 0,0 l/m 0,00 h 0,00 h 0 W/m 7,4 km/h (2 Bft) 98,95 %
11.11.2017 22:00 5,5 C 4,7 C 3,6 C 97 % 15 lf 1009,0 hPa 0,0 l/m 0,00 h 0,00 h 0 W/m 7,6 km/h (2 Bft) 95,80 %
11.11.2017 23:00 4,9 C 3,8 C 2,7 C 97 % 15 lf 1009,1 hPa 0,0 l/m 0,00 h 0,00 h 0 W/m 7,4 km/h (2 Bft) 93,74 %
12.11.2017 00:00 4,6 C 4,1 C 3,2 C 97 % 15 lf 1008,9 hPa 0,0 l/m 0,00 h 0,00 h 0 W/m 10,4 km/h (2 Bft) 97,78 %
12.11.2017 01:00 4,4 C 3,5 C 2,5 C 97 % 15 lf 1008,3 hPa 0,0 l/m 0,00 h 0,00 h 0 W/m 6,2 km/h (2 Bft) 97,01 %
12.11.2017 02:00 4,1 C 3,9 C 3,1 C 97 % 15 lf 1007,9 hPa 0,0 l/m 0,00 h 0,00 h 0 W/m 8,5 km/h (2 Bft) 95,65 %
12.11.2017 03:00 4,4 C 4,1 C 3,2 C 98 % 15 lf 1007,1 hPa 0,0 l/m 0,00 h 0,00 h 0 W/m 9,4 km/h (2 Bft) 96,59 %
12.11.2017 04:00 4,6 C 4,0 C 3,1 C 98 % 15 lf 1006,4 hPa 0,0 l/m 0,00 h 0,00 h 0 W/m 6,6 km/h (2 Bft) 93,50 %
12.11.2017 05:00 4,5 C 4,3 C 3,3 C 98 % 15 lf 1005,8 hPa 0,0 l/m 0,00 h 0,00 h 0 W/m 8,5 km/h (2 Bft) 96,66 %
12.11.2017 06:00 4,7 C 4,4 C 3,5 C 98 % 15 lf 1004,6 hPa 0,0 l/m 0,00 h 0,00 h 0 W/m 7,7 km/h (2 Bft) 97,95 %
12.11.2017 07:00 4,8 C 4,4 C 3,7 C 98 % 15 lf 1003,5 hPa 0,0 l/m 0,00 h 0,00 h 0 W/m 9,5 km/h (2 Bft) 94,66 %
12.11.2017 08:00 4,9 C 4,6 C 3,9 C 98 % 15 lf 1002,5 hPa 0,0 l/m 0,00 h 0,00 h 9 W/m 8,1 km/h (2 Bft) 97,87 %
12.11.2017 09:00 5,1 C 5,0 C 4,0 C 98 % 15 lf 1002,1 hPa 0,4 l/m 0,00 h 0,70 h 16 W/m 10,8 km/h (2 Bft) 97,05 %
12.11.2017 10:00 5,3 C 5,4 C 4,6 C 98 % 15 lf 1001,1 hPa 0,0 l/m 0,00 h 0,27 h 36 W/m 8,0 km/h (2 Bft) 96,38 %
12.11.2017 11:00 5,4 C 6,2 C 5,2 C 98 % 15 lf 1000,2 hPa 0,0 l/m 0,10 h 0,03 h 130 W/m 15,9 km/h (3 Bft) 95,53 %
12.11.2017 12:00 5,9 C 6,4 C 5,4 C 97 % 6 lf 999,5 hPa 0,0 l/m 0,07 h 0,17 h 115 W/m 13,5 km/h (3 Bft) 96,19 %
12.11.2017 13:00 6,2 C 6,6 C 5,3 C 94 % 15 lf 999,3 hPa 0,0 l/m 0,00 h 0,00 h 105 W/m 14,1 km/h (3 Bft) 96,74 %
12.11.2017 14:00 5,6 C 4,9 C 3,7 C 92 % 14 lf 999,1 hPa 0,4 l/m 0,00 h 0,13 h 44 W/m 19,0 km/h (3 Bft) 97,08 %
12.11.2017 15:00 5,1 C 5,2 C 3,8 C 93 % 15 lf 999,3 hPa 0,0 l/m 0,03 h 0,00 h 53 W/m 18,5 km/h (3 Bft) 95,59 %
12.11.2017 16:00 4,9 C 4,6 C 3,3 C 94 % 14 lf 999,8 hPa 0,0 l/m 0,03 h 0,00 h 19 W/m 19,5 km/h (3 Bft) 96,74 %
12.11.2017 17:00 4,5 C 4,2 C 3,2 C 94 % 3 lf 1000,9 hPa 0,0 l/m 0,00 h 0,00 h 0 W/m 15,6 km/h (3 Bft) 96,65 %
12.11.2017 18:00 4,3 C 3,9 C 2,8 C 95 % 1 lf 1002,0 hPa 0,0 l/m 0,00 h 0,00 h 0 W/m 16,7 km/h (3 Bft) 96,66 %
12.11.2017 19:00 4,3 C 4,0 C 2,9 C 95 % 1 lf 1003,3 hPa 0,0 l/m 0,00 h 0,00 h 0 W/m 17,2 km/h (3 Bft) 95,73 %
12.11.2017 20:00 4,0 C 3,5 C 2,4 C 95 % 1 lf 1004,4 hPa 0,0 l/m 0,00 h 0,00 h 0 W/m 14,3 km/h (3 Bft) 96,37 %
12.11.2017 21:00 3,9 C 3,6 C 2,5 C 96 % 1 lf 1005,6 hPa 0,0 l/m 0,00 h 0,00 h 0 W/m 13,8 km/h (3 Bft) 99,36 %
12.11.2017 22:00 4,1 C 4,0 C 2,8 C 96 % 1 lf 1006,7 hPa 0,0 l/m 0,00 h 0,00 h 0 W/m 17,6 km/h (3 Bft) 94,88 %
12.11.2017 23:00 4,0 C 3,5 C 2,3 C 96 % 1 lf 1007,5 hPa 0,0 l/m 0,00 h 0,00 h 0 W/m 15,5 km/h (3 Bft) 95,58 %
Min-Datum _ 07.11.17 07.11.17 07.11.17 06.11.17 06.11.17 12.11.17 - - - - 06.11.17 09.11.17
_ Min-Zeit 05:28 01:56 02:18 14:40 10:52 13:58 - - - - 16:58 04:08
Minimum _ -0,5 C -1,7 C -2,2 C 67 % 0 lf 999,0 hPa - - - - 0,0 km/h (0 Bft) 4,76 %
Max-Datum _ 06.11.17 06.11.17 06.11.17 06.11.17 06.11.17 06.11.17 11.11.17 06.11.17 11.11.17 07.11.17 10.11.17 06.11.17
_ Max-Zeit 14:44 11:44 14:32 09:44 02:02 22:08 18:12 12:10 18:10 12:10 15:04 00:00
Maximum _ 11,3 C 22,2 C 10,0 C 98 % 15 lf 1025,8 hPa 0,8 l/m 0,07 h 0,07 h 483 W/m 48,1 km/h
W-NW (6 Bft)
100,00 %
Durchschnitt _ 5,9 C 6,1 C 4,5 C 93 % 7 lf 1015,8 hPa #4,8 l/m #14:42 h #9:02 h 91 W/m 11,2 km/h (2 Bft) 96,45 %
© 2017 W. Hausmann